Aeroporto :
LOGIN :

Iscrizione | Disclaimer

   EN    FR    IT 

 










Sommario :    VFR   VFR Marginale   IFR   IFR Intensivo   IFR Molto Intensivo
Visibilità : 
Base nubi : 
>= 8 km
>= 3000ft
5 / 8 km
1000 / 3000 ft
1500m / 5 km
500 / 1000 ft
800 / 1500m
200 / 500 ft
< 800m
< 200 ft
Simboli :   Temporali  Nebbia  Neve Forte  Precipitazioni Forti  Vento > 20 kt
SIGMETs :   Varie  Temporali  Ghiacco  Turbolenza  Onda orograficha  Ceneri Vulcaniche







- Altitudine del aeroporto : 1339 ft


ETHN - Niederstetten

ULTIMO METAR :
  • 201320Z 29008KT 9999 BKN007 BKN038 15/12 Q1003 GRN BLU TEMPO YLO

METARs OBSOLETI :
  • 201220Z 29009KT 9999 BKN005 BKN050 14/12 Q1004 YLO BLU TEMPO YLO
  • 201120Z 30008KT 9999 FEW005 OVC050 13/13 Q1003 BLU BLU TEMPO YLO

TAF TAF ETHN
Valido dal 20 a 14 ore il 20 a 23 ore UTC


201325Z 2014/2023 29007KT 9999 NSW SCT007 BKN050
TEMPO 2014/2020 30015G25KT 3000 TSRA BKN005 BKN030CB
BECMG 2020/2022 29012G22KT 7000 RA BKN005 OVC012
Nessun NOTAM noto per questo aeroporto.
3 SIGMETs conosciuti per la FIR Langen (EDGG) :
 
Cancellazione del SIGMET 2 
EDGG SIGMET 4 VALID 201419/201500 EDZF
EDGG LANGEN FIR CNL SIGMET 2 201350/201500=
Temporali affogati con grandine
EDGG SIGMET 3 VALID 201415/201700 EDZF
EDGG LANGEN FIR EMBD TSGR OBS WI N5120 E01030 - N4927 E01057 - N4926 E00845 - N5120 E00846 - N5120 E01030 TOP FL360 MOV SSW 15KT NC=
SIGMET 2  ANNULATO :
Temporali frequenti con grandine
EDGG SIGMET 2 VALID 201350/201500 EDZF
EDGG LANGEN FIR FRQ TSGR OBS APRX 35NM WID LINE BTN N5119 E00933 - N4949 E01038 TOP FL320 MOV SSW 20KT NC=



MetMap, La meteo Aeronautica in un colpo d'occhio ! - Copyright ORBIFLY Dicembre 2007 - Disclaimer

ORBIFLY MET'MAP TEAM :

Programmazione e sviluppo : Alexandra Zaïnal
Concezione e sviluppo : Baudouin d'Aumeries
Co-Programmazione e sviluppo : Marc-Olivier Méhu
Supporto tecnico e logistico : Manuel Goepfert
Aiuto per la traduzione : Arnaldo La Scala

Contatto : metmap@orbifly.com




FONTI E CREDITI :

   NOAA